Portada
METAR-TAF:

METAR-TAF

Aeroports :

Damasc, Síria

latitud: 33-25N, longitud: 036-31E, altitud: 608 m

Observació

L'informe es va fer fa 47 minuts, a les 19:00 UTC
Vent 2 kt del Oest/Nord-Oest
Temperatura 26°C
Humitat 23%
Pressió 1016 hPa
Visibilitat 10 km o més
sense núvols per sota de 1500 mi sense presència de cumulonimbus.

METAR: OSDI 221900Z 29002KT CAVOK 26/03 Q1016

Hora: 22:47 (19:47 UTC)

Pronòstic

Pronòstic vàlid del 22 a les 18 UTC al 23 a les 24 UTC
Vent 10 kt del Sud/Sud-Oest
Visibilitat: 8000 m
Escasses núvols a una alçada de 3000 ft
Temporalment
l' 23 a les 12 UTC al 23 a les 16 UTC
Vent 15 kt del Oest/Sud-Oest amb ràfegues de 25 kt

TAF: OSDI 2218/2324 21010KT 8000 FEW030 TEMPO 2312/2316 24015G25KT

Observacions i pronòstics meteorològics de més de 4000 aeroports (METAR i TAF).

Les estacions disponibles són els punts grocs i vermells al mapa.

Posi el ratolí al punt desitjat per veure el nom de l'estació.

Feu clic per veure les observacions i els pronòstics meteorològics.

Per canviar el mapa: feu clic els botons verds amb una creu de color negre per apropar; al botó verd amb un guió per allunyar la imatge; o en les fletxes verdes per a mapes adjacents.


METAR-TAF: